createdAt,value
2019-02-15T00:00:55.274Z,102584.00
2019-02-15T00:03:26.140Z,102574.00
2019-02-15T00:05:56.971Z,102582.00
2019-02-15T00:08:28.033Z,102578.00
2019-02-15T00:10:58.668Z,102578.00
2019-02-15T00:13:29.063Z,102573.00
2019-02-15T00:15:59.661Z,102585.00
2019-02-15T00:18:39.157Z,102574.00
2019-02-15T00:21:24.226Z,102566.00
2019-02-15T00:23:55.022Z,102579.00
2019-02-15T00:26:25.338Z,102578.00
2019-02-15T00:28:55.913Z,102584.00
2019-02-15T00:31:26.274Z,102577.00
2019-02-15T00:33:56.592Z,102580.00
2019-02-15T00:36:27.223Z,102588.00
2019-02-15T00:38:58.126Z,102582.00
2019-02-15T00:41:28.539Z,102582.00
2019-02-15T00:43:58.860Z,102589.00
2019-02-15T00:47:04.839Z,102587.00
2019-02-15T00:49:53.182Z,102588.00
2019-02-15T00:52:51.569Z,102579.00
2019-02-15T00:55:39.519Z,102585.00
2019-02-15T00:58:17.142Z,102582.00
2019-02-15T01:01:06.949Z,102581.00
2019-02-15T01:04:02.295Z,102580.00
2019-02-15T01:06:58.771Z,102587.00
2019-02-15T01:09:54.706Z,102591.00
2019-02-15T01:12:38.004Z,102582.00
2019-02-15T01:15:08.765Z,102578.00
2019-02-15T01:17:39.465Z,102571.00
2019-02-15T01:20:10.205Z,102570.00
2019-02-15T01:22:40.586Z,102567.00
2019-02-15T01:25:10.967Z,102575.00
2019-02-15T01:28:09.448Z,102578.00
2019-02-15T01:31:02.807Z,102580.00
2019-02-15T01:33:58.151Z,102580.00
2019-02-15T01:36:37.352Z,102579.00
2019-02-15T01:39:44.893Z,102579.00
2019-02-15T01:42:23.553Z,102581.00
2019-02-15T01:44:58.204Z,102577.00
2019-02-15T01:47:32.442Z,102572.00
2019-02-15T01:50:02.759Z,102571.00
2019-02-15T01:52:33.103Z,102566.00
2019-02-15T01:55:03.469Z,102573.00
2019-02-15T01:57:34.178Z,102566.00
2019-02-15T02:00:05.053Z,102566.00
2019-02-15T02:02:41.263Z,102568.00
2019-02-15T02:05:11.645Z,102560.00
2019-02-15T02:07:41.977Z,102559.00
2019-02-15T02:10:13.113Z,102568.00
2019-02-15T02:12:43.472Z,102565.00
2019-02-15T02:15:14.053Z,102555.00
2019-02-15T02:17:44.417Z,102553.00
2019-02-15T02:20:14.724Z,102537.00
2019-02-15T02:22:45.060Z,102540.00
2019-02-15T02:25:15.481Z,102535.00
2019-02-15T02:27:46.240Z,102533.00
2019-02-15T02:30:17.151Z,102544.00
2019-02-15T02:32:49.843Z,102531.00
2019-02-15T02:35:20.522Z,102529.00
2019-02-15T02:37:51.186Z,102526.00
2019-02-15T02:40:21.927Z,102520.00
2019-02-15T02:42:52.287Z,102529.00
2019-02-15T02:45:23.025Z,102532.00
2019-02-15T02:47:55.794Z,102528.00
2019-02-15T02:50:26.124Z,102541.00
2019-02-15T02:52:56.742Z,102536.00
2019-02-15T02:55:27.462Z,102531.00
2019-02-15T02:57:58.064Z,102526.00
2019-02-15T03:00:33.675Z,102523.00
2019-02-15T03:03:01.039Z,102524.00
2019-02-15T03:05:31.716Z,102528.00
2019-02-15T03:08:02.302Z,102525.00
2019-02-15T03:10:32.996Z,102525.00
2019-02-15T03:13:04.401Z,102520.00
2019-02-15T03:15:35.287Z,102506.00
2019-02-15T03:18:05.616Z,102509.00
2019-02-15T03:20:35.971Z,102514.00
2019-02-15T03:23:06.867Z,102514.00
2019-02-15T03:25:37.188Z,102504.00
2019-02-15T03:28:07.553Z,102505.00
2019-02-15T03:30:37.901Z,102503.00
2019-02-15T03:33:08.798Z,102510.00
2019-02-15T03:35:41.139Z,102497.00
2019-02-15T03:38:21.249Z,102504.00
2019-02-15T03:40:55.111Z,102507.00
2019-02-15T03:43:25.593Z,102500.00
2019-02-15T03:46:08.186Z,102493.00
2019-02-15T03:48:39.069Z,102477.00
2019-02-15T03:51:09.430Z,102498.00
2019-02-15T03:53:39.723Z,102480.00
2019-02-15T03:56:10.062Z,102497.00
2019-02-15T03:58:40.424Z,102490.00
2019-02-15T04:01:17.150Z,102486.00
2019-02-15T04:03:47.492Z,102493.00
2019-02-15T04:06:17.828Z,102492.00
2019-02-15T04:08:48.719Z,102495.00
2019-02-15T04:11:19.279Z,102498.00
2019-02-15T04:13:49.646Z,102485.00
2019-02-15T04:16:20.384Z,102497.00
2019-02-15T04:18:50.701Z,102499.00
2019-02-15T04:21:21.148Z,102499.00
2019-02-15T04:23:51.510Z,102498.00
2019-02-15T04:26:21.801Z,102502.00
2019-02-15T04:28:52.588Z,102493.00
2019-02-15T04:31:22.930Z,102494.00
2019-02-15T04:33:53.270Z,102486.00
2019-02-15T04:36:24.044Z,102484.00
2019-02-15T04:38:54.433Z,102492.00
2019-02-15T04:41:24.823Z,102492.00
2019-02-15T04:43:55.181Z,102486.00
2019-02-15T04:46:25.550Z,102493.00
2019-02-15T04:48:56.425Z,102488.00
2019-02-15T04:51:27.048Z,102489.00
2019-02-15T04:53:57.509Z,102486.00
2019-02-15T04:56:28.709Z,102488.00
2019-02-15T04:58:59.464Z,102486.00
2019-02-15T05:01:30.443Z,102488.00
2019-02-15T05:04:00.779Z,102479.00
2019-02-15T05:06:31.108Z,102491.00
2019-02-15T05:09:01.726Z,102496.00
2019-02-15T05:11:32.531Z,102487.00
2019-02-15T05:14:03.115Z,102488.00
2019-02-15T05:16:49.594Z,102481.00
2019-02-15T05:19:19.954Z,102481.00
2019-02-15T05:21:50.664Z,102484.00
2019-02-15T05:24:21.275Z,102481.00
2019-02-15T05:26:51.979Z,102475.00
2019-02-15T05:29:22.966Z,102487.00
2019-02-15T05:31:53.738Z,102476.00
2019-02-15T05:34:24.320Z,102481.00
2019-02-15T05:36:54.678Z,102480.00
2019-02-15T05:39:25.022Z,102478.00
2019-02-15T05:41:56.106Z,102470.00
2019-02-15T05:44:26.544Z,102478.00
2019-02-15T05:46:57.522Z,102475.00
2019-02-15T05:49:28.196Z,102472.00
2019-02-15T05:51:59.110Z,102476.00
2019-02-15T05:54:29.494Z,102480.00
2019-02-15T05:56:59.832Z,102470.00
2019-02-15T05:59:30.690Z,102476.00
2019-02-15T06:02:01.519Z,102471.00
2019-02-15T06:04:31.868Z,102487.00
2019-02-15T06:07:02.483Z,102474.00
2019-02-15T06:09:32.845Z,102479.00
2019-02-15T06:12:04.376Z,102478.00
2019-02-15T06:14:34.726Z,102477.00
2019-02-15T06:17:05.755Z,102479.00
2019-02-15T06:19:36.459Z,102492.00
2019-02-15T06:22:07.215Z,102490.00
2019-02-15T06:24:37.921Z,102476.00
2019-02-15T06:27:08.576Z,102486.00
2019-02-15T06:29:39.067Z,102489.00
2019-02-15T06:32:09.472Z,102483.00
2019-02-15T06:34:40.433Z,102485.00
2019-02-15T06:37:10.872Z,102489.00
2019-02-15T06:39:41.459Z,102488.00
2019-02-15T06:42:11.780Z,102484.00
2019-02-15T06:44:42.676Z,102490.00
2019-02-15T06:47:13.037Z,102494.00
2019-02-15T06:49:44.458Z,102487.00
2019-02-15T06:52:14.796Z,102493.00
2019-02-15T06:54:45.330Z,102485.00
2019-02-15T06:57:15.670Z,102487.00
2019-02-15T07:00:24.227Z,102485.00
2019-02-15T07:03:02.856Z,102494.00
2019-02-15T07:05:33.758Z,102490.00
2019-02-15T07:08:04.108Z,102496.00
2019-02-15T07:10:44.389Z,102489.00
2019-02-15T07:13:14.744Z,102490.00
2019-02-15T07:15:45.105Z,102487.00
2019-02-15T07:18:15.465Z,102490.00
2019-02-15T07:20:46.080Z,102492.00
2019-02-15T07:23:16.466Z,102510.00
2019-02-15T07:25:46.831Z,102485.00
2019-02-15T07:28:17.179Z,102487.00
2019-02-15T07:30:47.524Z,102487.00
2019-02-15T07:33:18.459Z,102492.00
2019-02-15T07:35:48.824Z,102482.00
2019-02-15T07:38:23.451Z,102481.00
2019-02-15T07:40:54.377Z,102482.00
2019-02-15T07:43:24.724Z,102489.00
2019-02-15T07:45:55.362Z,102479.00
2019-02-15T07:48:26.039Z,102486.00
2019-02-15T07:50:56.633Z,102484.00
2019-02-15T07:53:27.280Z,102484.00
2019-02-15T07:55:57.758Z,102474.00
2019-02-15T07:58:28.121Z,102477.00
2019-02-15T08:00:59.603Z,102480.00
2019-02-15T08:03:29.979Z,102486.00
2019-02-15T08:06:00.298Z,102481.00
2019-02-15T08:08:30.908Z,102481.00
2019-02-15T08:11:01.266Z,102478.00
2019-02-15T08:13:32.363Z,102475.00
2019-02-15T08:16:03.002Z,102459.00
2019-02-15T08:18:33.469Z,102479.00
2019-02-15T08:21:03.912Z,102467.00
2019-02-15T08:23:34.250Z,102475.00
2019-02-15T08:26:05.258Z,102464.00
2019-02-15T08:28:35.902Z,102466.00
2019-02-15T08:31:06.241Z,102472.00
2019-02-15T08:33:37.198Z,102454.00
2019-02-15T08:36:07.815Z,102462.00
2019-02-15T08:38:38.516Z,102466.00
2019-02-15T08:41:08.905Z,102464.00
2019-02-15T08:43:39.163Z,102466.00
2019-02-15T08:46:09.900Z,102456.00
2019-02-15T08:48:46.210Z,102449.00
2019-02-15T08:51:12.706Z,102455.00
2019-02-15T08:53:43.060Z,102459.00
2019-02-15T08:56:13.745Z,102459.00
2019-02-15T08:58:44.165Z,102459.00
2019-02-15T09:01:15.550Z,102453.00
2019-02-15T09:03:45.887Z,102456.00
2019-02-15T09:06:16.239Z,102448.00
2019-02-15T09:08:46.568Z,102448.00
2019-02-15T09:11:17.328Z,102452.00
2019-02-15T09:13:47.995Z,102444.00
2019-02-15T09:16:18.404Z,102446.00
2019-02-15T09:18:49.106Z,102446.00
2019-02-15T09:21:19.419Z,102444.00
2019-02-15T09:23:49.820Z,102433.00
2019-02-15T09:26:20.509Z,102443.00
2019-02-15T09:29:00.594Z,102447.00
2019-02-15T09:31:30.968Z,102437.00
2019-02-15T09:34:01.296Z,102439.00
2019-02-15T09:36:31.693Z,102444.00
2019-02-15T09:39:02.673Z,102444.00
2019-02-15T09:41:33.049Z,102443.00
2019-02-15T09:44:03.367Z,102451.00
2019-02-15T09:46:33.700Z,102448.00
2019-02-15T09:49:04.916Z,102445.00
2019-02-15T09:51:35.266Z,102447.00
2019-02-15T09:54:05.628Z,102448.00
2019-02-15T09:56:35.994Z,102449.00
2019-02-15T09:59:16.853Z,102440.00
2019-02-15T10:01:47.560Z,102438.00
2019-02-15T10:04:17.921Z,102435.00
2019-02-15T10:06:48.566Z,102439.00
2019-02-15T10:09:18.924Z,102428.00
2019-02-15T10:11:49.404Z,102436.00
2019-02-15T10:14:39.118Z,102421.00
2019-02-15T10:17:09.919Z,102426.00
2019-02-15T10:19:40.645Z,102416.00
2019-02-15T10:22:11.643Z,102425.00
2019-02-15T10:24:42.009Z,102420.00
2019-02-15T10:27:12.371Z,102428.00
2019-02-15T10:29:42.729Z,102422.00
2019-02-15T10:32:13.073Z,102425.00
2019-02-15T10:34:43.824Z,102428.00
2019-02-15T10:37:14.439Z,102421.00
2019-02-15T10:39:44.798Z,102413.00
2019-02-15T10:42:15.224Z,102408.00
2019-02-15T10:44:45.800Z,102402.00
2019-02-15T10:47:24.731Z,102404.00
2019-02-15T10:49:51.724Z,102399.00
2019-02-15T10:52:22.070Z,102401.00
2019-02-15T10:54:53.150Z,102396.00
2019-02-15T10:57:23.549Z,102387.00
2019-02-15T10:59:53.896Z,102382.00
2019-02-15T11:02:24.233Z,102387.00
2019-02-15T11:04:55.070Z,102375.00
2019-02-15T11:07:25.422Z,102381.00
2019-02-15T11:09:55.745Z,102387.00
2019-02-15T11:12:25.973Z,102372.00
2019-02-15T11:14:56.641Z,102374.00
2019-02-15T11:17:27.441Z,102373.00
2019-02-15T11:19:58.057Z,102372.00
2019-02-15T11:22:28.448Z,102374.00
2019-02-15T11:24:58.766Z,102370.00
2019-02-15T11:27:29.146Z,102356.00
2019-02-15T11:29:59.508Z,102357.00
2019-02-15T11:32:29.845Z,102355.00
2019-02-15T11:35:00.728Z,102353.00
2019-02-15T11:37:31.064Z,102347.00
2019-02-15T11:40:01.720Z,102337.00
2019-02-15T11:42:36.414Z,102339.00
2019-02-15T11:45:07.873Z,102332.00
2019-02-15T11:47:38.824Z,102332.00
2019-02-15T11:50:12.442Z,102332.00
2019-02-15T11:52:43.305Z,102328.00
2019-02-15T11:55:14.572Z,102324.00
2019-02-15T11:57:47.342Z,102331.00
2019-02-15T12:00:23.164Z,102325.00
2019-02-15T12:02:54.667Z,102324.00
2019-02-15T12:05:28.731Z,102317.00
2019-02-15T12:08:00.286Z,102312.00
2019-02-15T12:10:31.814Z,102321.00
2019-02-15T12:13:02.902Z,102315.00
2019-02-15T12:15:34.345Z,102309.00
2019-02-15T12:18:06.026Z,102301.00
2019-02-15T12:20:37.375Z,102302.00
2019-02-15T12:23:08.157Z,102284.00
2019-02-15T12:25:39.542Z,102304.00
2019-02-15T12:28:09.942Z,102307.00
2019-02-15T12:30:40.420Z,102300.00
2019-02-15T12:33:10.793Z,102291.00
2019-02-15T12:35:41.151Z,102295.00
2019-02-15T12:38:11.802Z,102285.00
2019-02-15T12:40:42.204Z,102295.00
2019-02-15T12:43:12.540Z,102285.00
2019-02-15T12:45:43.557Z,102279.00
2019-02-15T12:48:14.285Z,102278.00
2019-02-15T12:50:44.706Z,102271.00
2019-02-15T12:53:15.315Z,102269.00
2019-02-15T12:55:45.709Z,102264.00
2019-02-15T12:58:16.952Z,102261.00
2019-02-15T13:00:48.096Z,102268.00
2019-02-15T13:03:26.496Z,102253.00
2019-02-15T13:05:57.415Z,102257.00
2019-02-15T13:08:28.694Z,102259.00
2019-02-15T13:10:59.029Z,102248.00
2019-02-15T13:13:29.456Z,102246.00
2019-02-15T13:16:00.142Z,102241.00
2019-02-15T13:18:30.612Z,102247.00
2019-02-15T13:21:00.908Z,102241.00
2019-02-15T13:23:31.247Z,102239.00
2019-02-15T13:26:08.388Z,102232.00
2019-02-15T13:28:34.120Z,102234.00
2019-02-15T13:31:04.825Z,102224.00
2019-02-15T13:33:35.187Z,102233.00
2019-02-15T13:36:05.540Z,102212.00
2019-02-15T13:38:37.907Z,102220.00
2019-02-15T13:41:08.526Z,102219.00
2019-02-15T13:43:39.165Z,102221.00
2019-02-15T13:46:09.640Z,102219.00
2019-02-15T13:48:40.919Z,102214.00
2019-02-15T13:51:11.297Z,102214.00
2019-02-15T13:53:41.941Z,102204.00
2019-02-15T13:56:17.807Z,102203.00
2019-02-15T13:58:48.258Z,102201.00
2019-02-15T14:01:19.044Z,102193.00
2019-02-15T14:03:50.023Z,102195.00
2019-02-15T14:06:20.613Z,102190.00
2019-02-15T14:08:51.358Z,102185.00
2019-02-15T14:11:21.971Z,102182.00
2019-02-15T14:13:52.591Z,102178.00
2019-02-15T14:16:23.812Z,102176.00
2019-02-15T14:18:54.227Z,102173.00
2019-02-15T14:21:24.600Z,102167.00
2019-02-15T14:23:55.029Z,102165.00
2019-02-15T14:26:25.389Z,102163.00
2019-02-15T14:28:55.949Z,102162.00
2019-02-15T14:31:26.307Z,102157.00
2019-02-15T14:33:56.993Z,102153.00
2019-02-15T14:36:27.585Z,102155.00
2019-02-15T14:38:58.585Z,102150.00
2019-02-15T14:41:29.219Z,102147.00
2019-02-15T14:43:59.568Z,102137.00
2019-02-15T14:46:29.849Z,102142.00
2019-02-15T14:49:00.595Z,102130.00
2019-02-15T14:51:37.917Z,102138.00
2019-02-15T14:54:10.212Z,102132.00
2019-02-15T14:56:40.364Z,102122.00
2019-02-15T14:59:11.056Z,102119.00
2019-02-15T15:01:41.470Z,102116.00
2019-02-15T15:04:11.829Z,102110.00
2019-02-15T15:06:42.212Z,102104.00
2019-02-15T15:09:12.907Z,102117.00
2019-02-15T15:11:43.523Z,102113.00
2019-02-15T15:14:13.906Z,102117.00
2019-02-15T15:16:44.230Z,102108.00
2019-02-15T15:19:14.917Z,102104.00
2019-02-15T15:21:48.076Z,102099.00
2019-02-15T15:24:18.448Z,102089.00
2019-02-15T15:26:48.845Z,102079.00
2019-02-15T15:29:19.447Z,102086.00
2019-02-15T15:31:49.813Z,102082.00
2019-02-15T15:34:20.499Z,102081.00
2019-02-15T15:36:52.888Z,102078.00
2019-02-15T15:39:23.200Z,102080.00
2019-02-15T15:41:53.615Z,102076.00
2019-02-15T15:44:24.340Z,102082.00
2019-02-15T15:46:55.055Z,102077.00
2019-02-15T15:49:26.086Z,102078.00
2019-02-15T15:51:56.541Z,102083.00
2019-02-15T15:54:27.691Z,102071.00
2019-02-15T15:56:58.047Z,102079.00
2019-02-15T15:59:30.510Z,102076.00
2019-02-15T16:02:00.905Z,102074.00
2019-02-15T16:04:31.343Z,102071.00
2019-02-15T16:07:02.024Z,102068.00
2019-02-15T16:09:32.873Z,102075.00
2019-02-15T16:12:03.213Z,102064.00
2019-02-15T16:14:34.372Z,102063.00
2019-02-15T16:17:05.109Z,102068.00
2019-02-15T16:19:40.537Z,102075.00
2019-02-15T16:22:07.709Z,102073.00
2019-02-15T16:24:38.351Z,102072.00
2019-02-15T16:27:09.012Z,102062.00
2019-02-15T16:29:39.425Z,102065.00
2019-02-15T16:32:10.032Z,102062.00
2019-02-15T16:34:40.662Z,102063.00
2019-02-15T16:37:12.044Z,102060.00
2019-02-15T16:39:42.608Z,102060.00
2019-02-15T16:42:13.924Z,102064.00
2019-02-15T16:44:44.587Z,102065.00
2019-02-15T16:47:15.241Z,102062.00
2019-02-15T16:49:45.988Z,102052.00
2019-02-15T16:52:16.334Z,102057.00
2019-02-15T16:54:47.497Z,102059.00
2019-02-15T16:57:17.879Z,102055.00
2019-02-15T16:59:54.776Z,102062.00
2019-02-15T17:02:25.129Z,102057.00
2019-02-15T17:04:55.807Z,102057.00
2019-02-15T17:07:26.191Z,102059.00
2019-02-15T17:09:57.156Z,102051.00
2019-02-15T17:12:27.908Z,102052.00
2019-02-15T17:15:12.999Z,102054.00
2019-02-15T17:17:47.658Z,102050.00
2019-02-15T17:20:18.444Z,102049.00
2019-02-15T17:22:54.751Z,102060.00
2019-02-15T17:25:33.645Z,102062.00
2019-02-15T17:28:04.265Z,102054.00
2019-02-15T17:30:44.995Z,102053.00
2019-02-15T17:33:15.370Z,102049.00
2019-02-15T17:35:46.243Z,102048.00
2019-02-15T17:38:16.882Z,102053.00
2019-02-15T17:40:47.311Z,102055.00
2019-02-15T17:43:17.906Z,102026.00
2019-02-15T17:45:48.685Z,102043.00
2019-02-15T17:48:19.182Z,102042.00
2019-02-15T17:50:49.667Z,102038.00
2019-02-15T17:53:20.112Z,102039.00
2019-02-15T17:55:50.823Z,102031.00
2019-02-15T17:58:22.559Z,102028.00
2019-02-15T18:00:52.935Z,102024.00
2019-02-15T18:03:23.411Z,102031.00
2019-02-15T18:05:54.116Z,102016.00
2019-02-15T18:08:24.572Z,102016.00
2019-02-15T18:10:55.475Z,102026.00
2019-02-15T18:13:26.170Z,102011.00
2019-02-15T18:15:58.013Z,102008.00
2019-02-15T18:18:28.375Z,102019.00
2019-02-15T18:20:58.811Z,102013.00
2019-02-15T18:23:29.654Z,102011.00
2019-02-15T18:26:00.049Z,102019.00
2019-02-15T18:28:30.514Z,102009.00
2019-02-15T18:31:01.242Z,102001.00
2019-02-15T18:33:32.008Z,101999.00
2019-02-15T18:36:02.924Z,101991.00
2019-02-15T18:38:33.193Z,101990.00
2019-02-15T18:41:13.135Z,101990.00
2019-02-15T18:43:35.681Z,101982.00
2019-02-15T18:46:05.996Z,101976.00
2019-02-15T18:48:36.588Z,101985.00
2019-02-15T18:51:07.136Z,101979.00
2019-02-15T18:53:37.787Z,101987.00
2019-02-15T18:56:08.188Z,101977.00
2019-02-15T18:58:44.743Z,101988.00
2019-02-15T19:01:15.872Z,101979.00
2019-02-15T19:03:46.830Z,101984.00
2019-02-15T19:06:19.154Z,101975.00
2019-02-15T19:08:49.661Z,101974.00
2019-02-15T19:11:20.085Z,101974.00
2019-02-15T19:13:50.552Z,101970.00
2019-02-15T19:16:24.381Z,101957.00
2019-02-15T19:18:54.756Z,101958.00
2019-02-15T19:21:25.738Z,101975.00
2019-02-15T19:24:07.225Z,101978.00
2019-02-15T19:26:40.779Z,101972.00
2019-02-15T19:29:12.004Z,101961.00
2019-02-15T19:31:42.633Z,101966.00
2019-02-15T19:34:16.363Z,101957.00
2019-02-15T19:36:47.182Z,101968.00
2019-02-15T19:39:17.934Z,101962.00
2019-02-15T19:41:49.676Z,101964.00
2019-02-15T19:44:20.095Z,101961.00
2019-02-15T19:46:50.541Z,101954.00
2019-02-15T19:49:20.942Z,101948.00
2019-02-15T19:51:51.330Z,101949.00
2019-02-15T19:54:24.103Z,101943.00
2019-02-15T19:56:54.509Z,101942.00
2019-02-15T19:59:24.841Z,101933.00
2019-02-15T20:01:55.845Z,101930.00
2019-02-15T20:04:26.873Z,101933.00
2019-02-15T20:06:58.280Z,101941.00
2019-02-15T20:09:28.618Z,101933.00
2019-02-15T20:11:59.219Z,101941.00
2019-02-15T20:14:30.141Z,101944.00
2019-02-15T20:17:00.957Z,101939.00
2019-02-15T20:19:32.015Z,101947.00
2019-02-15T20:22:02.621Z,101932.00
2019-02-15T20:24:33.504Z,101931.00
2019-02-15T20:27:03.973Z,101929.00
2019-02-15T20:29:49.567Z,101935.00
2019-02-15T20:32:16.258Z,101931.00
2019-02-15T20:34:46.955Z,101930.00
2019-02-15T20:37:17.614Z,101926.00
2019-02-15T20:39:48.524Z,101928.00
2019-02-15T20:42:19.096Z,101925.00
2019-02-15T20:44:49.727Z,101919.00
2019-02-15T20:47:20.361Z,101923.00
2019-02-15T20:50:09.964Z,101922.00
2019-02-15T20:52:40.375Z,101914.00
2019-02-15T20:55:12.911Z,101916.00
2019-02-15T20:57:43.656Z,101918.00
2019-02-15T21:00:19.486Z,101912.00
2019-02-15T21:02:50.130Z,101914.00
2019-02-15T21:05:39.878Z,101923.00
2019-02-15T21:08:10.536Z,101915.00
2019-02-15T21:10:41.918Z,101915.00
2019-02-15T21:13:20.303Z,101913.00
2019-02-15T21:15:55.864Z,101913.00
2019-02-15T21:18:26.807Z,101912.00
2019-02-15T21:21:03.455Z,101910.00
2019-02-15T21:23:33.805Z,101900.00
2019-02-15T21:26:04.158Z,101907.00
2019-02-15T21:28:34.904Z,101911.00
2019-02-15T21:31:06.320Z,101904.00
2019-02-15T21:33:36.717Z,101896.00
2019-02-15T21:36:07.131Z,101908.00
2019-02-15T21:38:37.762Z,101904.00
2019-02-15T21:41:08.186Z,101906.00
2019-02-15T21:43:39.197Z,101897.00
2019-02-15T21:46:09.633Z,101901.00
2019-02-15T21:48:39.989Z,101897.00
2019-02-15T21:51:16.313Z,101897.00
2019-02-15T21:53:46.734Z,101896.00
2019-02-15T21:56:17.735Z,101906.00
2019-02-15T21:58:48.101Z,101901.00
2019-02-15T22:01:18.348Z,101900.00
2019-02-15T22:03:49.770Z,101890.00
2019-02-15T22:06:20.456Z,101889.00
2019-02-15T22:08:50.805Z,101892.00
2019-02-15T22:11:21.100Z,101884.00
2019-02-15T22:13:51.840Z,101883.00
2019-02-15T22:16:22.498Z,101884.00
2019-02-15T22:18:52.862Z,101891.00
2019-02-15T22:21:23.195Z,101888.00
2019-02-15T22:23:54.258Z,101883.00
2019-02-15T22:26:24.640Z,101882.00
2019-02-15T22:28:55.060Z,101884.00
2019-02-15T22:31:25.910Z,101876.00
2019-02-15T22:33:56.316Z,101880.00
2019-02-15T22:36:26.649Z,101877.00
2019-02-15T22:38:58.048Z,101882.00
2019-02-15T22:41:38.767Z,101883.00
2019-02-15T22:44:28.491Z,101883.00
2019-02-15T22:46:58.827Z,101879.00
2019-02-15T22:49:29.186Z,101877.00
2019-02-15T22:52:00.307Z,101875.00
2019-02-15T22:54:35.166Z,101877.00
2019-02-15T22:57:05.786Z,101881.00
2019-02-15T22:59:36.147Z,101873.00
2019-02-15T23:02:14.401Z,101871.00
2019-02-15T23:04:44.746Z,101873.00
2019-02-15T23:07:15.492Z,101874.00
2019-02-15T23:09:48.012Z,101869.00
2019-02-15T23:12:18.729Z,101870.00
2019-02-15T23:14:49.115Z,101864.00
2019-02-15T23:17:19.892Z,101852.00
2019-02-15T23:19:50.305Z,101844.00
2019-02-15T23:22:20.923Z,101855.00
2019-02-15T23:24:51.854Z,101861.00
2019-02-15T23:27:22.645Z,101847.00
2019-02-15T23:29:53.043Z,101840.00
2019-02-15T23:32:23.566Z,101842.00
2019-02-15T23:34:54.285Z,101844.00
2019-02-15T23:37:24.913Z,101845.00
2019-02-15T23:39:55.250Z,101846.00
2019-02-15T23:42:25.963Z,101849.00
2019-02-15T23:44:56.762Z,101846.00
2019-02-15T23:47:43.450Z,101843.00
2019-02-15T23:50:13.100Z,101826.00
2019-02-15T23:52:44.074Z,101823.00
2019-02-15T23:55:14.696Z,101830.00
2019-02-15T23:57:54.537Z,101823.00
